Time;durP1;ratioP1;P1;durP2;ratioP2;P2;SDS_P1;SDS_P2;PMS_P1;PMS_P2;Temp;Humidity;BMP_temperature;BMP_pressure;BME280_temperature;BME280_humidity;BME280_pressure;Samples;Min_cycle;Max_cycle;Signal;HPM_P1;HPM_P2
2023/05/18 00:00:13;;;;;;;3.20;2.42;;;25.40;56.60;;;;;;5109198;28;20050;-67
2023/05/18 00:02:40;;;;;;;5.35;2.50;;;25.30;56.70;;;;;;5111875;28;20123;-67
2023/05/18 00:05:10;;;;;;;2.92;2.40;;;25.40;56.70;;;;;;5105029;28;20028;-67
2023/05/18 00:07:36;;;;;;;3.20;2.55;;;25.30;56.80;;;;;;5113342;28;20035;-67
2023/05/18 00:10:02;;;;;;;6.32;2.85;;;25.30;56.90;;;;;;5109092;28;20471;-67
2023/05/18 00:12:28;;;;;;;3.65;2.58;;;25.40;56.90;;;;;;5113104;28;20055;-67
2023/05/18 00:14:54;;;;;;;3.50;2.47;;;25.30;57.00;;;;;;5107011;28;20082;-67
2023/05/18 00:17:20;;;;;;;3.35;2.35;;;25.30;57.10;;;;;;5113036;28;20024;-67
2023/05/18 00:19:49;;;;;;;4.85;2.58;;;25.30;57.20;;;;;;5106266;28;20059;-67
2023/05/18 00:22:17;;;;;;;3.85;2.70;;;25.20;57.20;;;;;;5072501;28;20470;-66
2023/05/18 00:24:46;;;;;;;3.45;2.72;;;25.30;57.20;;;;;;5103567;28;20479;-67
2023/05/18 00:27:13;;;;;;;2.42;2.22;;;25.30;57.30;;;;;;5111387;28;20457;-67
2023/05/18 00:29:39;;;;;;;3.45;2.45;;;25.20;57.30;;;;;;5110316;28;20023;-67
2023/05/18 00:32:06;;;;;;;3.80;2.83;;;25.00;57.40;;;;;;5113202;28;20074;-67
2023/05/18 00:34:32;;;;;;;3.30;2.45;;;25.10;57.40;;;;;;5087833;28;20036;-67
2023/05/18 00:36:58;;;;;;;3.05;2.25;;;25.20;57.40;;;;;;5096427;28;20494;-68
2023/05/18 00:39:24;;;;;;;2.80;2.40;;;25.00;57.50;;;;;;5092032;28;20392;-67
2023/05/18 00:41:50;;;;;;;2.97;2.40;;;25.00;57.60;;;;;;5092366;28;20157;-67
2023/05/18 00:44:16;;;;;;;3.28;2.25;;;25.00;57.60;;;;;;5094626;28;20036;-67
2023/05/18 00:46:43;;;;;;;2.83;2.38;;;25.00;57.70;;;;;;5089518;28;20048;-67
2023/05/18 00:49:10;;;;;;;6.38;2.30;;;25.00;57.70;;;;;;5085033;28;20041;-67
2023/05/18 00:51:37;;;;;;;5.05;2.60;;;25.00;57.70;;;;;;5089299;28;20047;-67
2023/05/18 00:54:05;;;;;;;6.78;2.58;;;25.00;57.70;;;;;;5085243;28;20044;-67
2023/05/18 00:56:34;;;;;;;5.85;2.47;;;25.10;57.70;;;;;;5071264;28;20557;-67
2023/05/18 00:59:01;;;;;;;2.90;2.28;;;25.10;57.60;;;;;;5054254;28;20782;-67
2023/05/18 01:01:35;;;;;;;2.75;2.40;;;25.10;57.70;;;;;;5087569;28;20040;-67
2023/05/18 01:04:03;;;;;;;2.58;2.22;;;25.20;57.70;;;;;;5082310;28;20075;-67
2023/05/18 01:06:31;;;;;;;5.65;2.30;;;25.00;57.70;;;;;;5072306;28;20103;-67
2023/05/18 01:09:01;;;;;;;4.07;2.65;;;25.00;57.80;;;;;;5088076;28;20055;-67
2023/05/18 01:11:47;;;;;;;4.50;2.55;;;25.00;57.90;;;;;;5070334;28;20051;-67
2023/05/18 01:14:25;;;;;;;4.13;2.28;;;25.00;57.80;;;;;;5085891;28;20039;-67
2023/05/18 01:17:03;;;;;;;3.22;2.65;;;25.00;57.80;;;;;;5085250;28;20082;-67
2023/05/18 01:20:01;;;;;;;3.78;2.38;;;25.00;57.80;;;;;;5087130;28;20060;-67
2023/05/18 01:22:49;;;;;;;7.57;2.58;;;25.00;58.00;;;;;;5086830;28;20048;-67
2023/05/18 01:25:18;;;;;;;3.55;2.30;;;24.80;57.90;;;;;;5123636;27;20114;-67
2023/05/18 01:27:46;;;;;;;3.95;2.65;;;24.90;58.00;;;;;;5111909;28;20036;-67
2023/05/18 01:30:16;;;;;;;2.80;2.22;;;24.90;58.00;;;;;;5084259;28;20480;-67
2023/05/18 01:32:45;;;;;;;5.68;2.47;;;24.80;58.00;;;;;;5092346;28;20107;-67
2023/05/18 01:35:11;;;;;;;4.45;2.50;;;24.80;58.00;;;;;;5106938;28;20071;-67
2023/05/18 01:37:37;;;;;;;4.10;2.30;;;24.80;58.10;;;;;;5111665;28;20069;-67
2023/05/18 01:40:06;;;;;;;2.75;2.15;;;24.80;58.20;;;;;;5111327;28;20089;-67
2023/05/18 01:42:36;;;;;;;6.30;2.75;;;24.90;58.20;;;;;;5091128;28;20050;-67
2023/05/18 01:45:08;;;;;;;3.03;2.20;;;24.90;58.20;;;;;;5099954;28;20051;-67
2023/05/18 01:47:36;;;;;;;2.38;2.10;;;24.70;58.10;;;;;;5104373;28;20032;-67
2023/05/18 01:50:10;;;;;;;2.47;2.28;;;24.80;58.10;;;;;;5108580;28;20108;-67
2023/05/18 01:52:44;;;;;;;2.97;1.92;;;24.90;58.20;;;;;;5110150;28;20039;-67
2023/05/18 01:55:13;;;;;;;10.75;1.90;;;24.90;58.20;;;;;;5111578;28;20044;-67
2023/05/18 01:57:43;;;;;;;7.22;2.65;;;25.00;58.00;;;;;;5112024;28;20042;-67
2023/05/18 02:00:11;;;;;;;5.85;2.45;;;24.80;57.80;;;;;;5105514;28;20114;-67
2023/05/18 02:02:43;;;;;;;2.33;2.13;;;24.90;57.80;;;;;;5105754;28;20031;-67
2023/05/18 02:05:11;;;;;;;3.67;1.83;;;25.20;57.50;;;;;;5110071;28;20031;-67
2023/05/18 02:07:38;;;;;;;3.10;2.47;;;25.00;57.50;;;;;;5110448;28;20089;-67
2023/05/18 02:10:06;;;;;;;4.90;2.13;;;25.00;57.70;;;;;;5108300;28;20031;-67
2023/05/18 02:12:32;;;;;;;4.07;2.13;;;24.80;57.70;;;;;;5128812;28;20042;-67
2023/05/18 02:14:59;;;;;;;2.60;2.20;;;24.90;57.90;;;;;;5099451;28;20051;-67
2023/05/18 02:17:26;;;;;;;2.22;1.95;;;24.70;57.80;;;;;;5091031;28;20181;-66
2023/05/18 02:19:52;;;;;;;3.33;2.40;;;24.70;57.80;;;;;;5091798;28;20421;-67
2023/05/18 02:22:18;;;;;;;4.15;2.25;;;24.80;57.90;;;;;;5127568;28;20473;-67
2023/05/18 02:24:45;;;;;;;4.40;2.13;;;24.70;57.90;;;;;;5126245;28;20122;-67
2023/05/18 02:27:13;;;;;;;5.60;2.10;;;24.80;57.90;;;;;;5093059;28;20939;-67
2023/05/18 02:29:40;;;;;;;4.68;2.40;;;24.70;58.20;;;;;;5109313;28;20031;-66
2023/05/18 02:32:06;;;;;;;2.67;2.00;;;24.70;58.30;;;;;;5127398;28;20039;-67
2023/05/18 02:34:34;;;;;;;2.90;2.00;;;24.70;58.20;;;;;;5110458;28;20096;-67
2023/05/18 02:37:03;;;;;;;2.35;2.15;;;24.70;58.30;;;;;;5129181;28;20487;-66
2023/05/18 02:39:30;;;;;;;4.28;2.10;;;24.70;58.30;;;;;;5095556;28;20460;-67
2023/05/18 02:41:56;;;;;;;8.93;2.22;;;24.80;58.40;;;;;;5075096;28;20414;-67
2023/05/18 02:44:22;;;;;;;3.42;2.20;;;24.70;58.40;;;;;;5112242;28;20030;-67
2023/05/18 02:46:48;;;;;;;2.72;2.10;;;24.70;58.40;;;;;;5129149;28;20049;-67
2023/05/18 02:49:14;;;;;;;3.53;2.20;;;24.70;58.50;;;;;;5100396;28;20483;-67
2023/05/18 02:51:41;;;;;;;3.70;2.05;;;24.70;58.50;;;;;;5109691;28;20039;-67
2023/05/18 02:54:07;;;;;;;2.45;2.20;;;24.80;58.30;;;;;;5090737;28;20520;-67
2023/05/18 02:56:37;;;;;;;3.72;1.95;;;24.70;58.10;;;;;;5089448;28;20063;-67
2023/05/18 02:59:14;;;;;;;5.10;1.77;;;24.80;58.20;;;;;;5089134;28;20059;-66
2023/05/18 03:01:42;;;;;;;7.75;2.10;;;24.70;58.40;;;;;;5091604;28;20032;-67
2023/05/18 03:04:08;;;;;;;2.05;1.80;;;24.70;58.40;;;;;;5078008;28;20127;-67
2023/05/18 03:06:39;;;;;;;2.42;1.70;;;24.60;58.40;;;;;;5110454;28;20464;-67
2023/05/18 03:09:05;;;;;;;5.28;2.10;;;24.50;58.40;;;;;;5111144;28;20074;-67
2023/05/18 03:11:36;;;;;;;4.00;1.75;;;24.70;58.60;;;;;;5113235;28;20067;-67
2023/05/18 03:14:02;;;;;;;2.17;1.55;;;24.70;58.50;;;;;;5092555;28;20472;-67
2023/05/18 03:16:28;;;;;;;2.67;1.77;;;24.60;58.40;;;;;;5094869;28;20854;-67
2023/05/18 03:18:57;;;;;;;4.30;1.85;;;24.50;58.40;;;;;;5106973;28;20116;-67
2023/05/18 03:21:24;;;;;;;2.03;1.85;;;24.60;58.40;;;;;;5084858;28;20131;-67
2023/05/18 03:23:50;;;;;;;2.63;2.22;;;24.50;58.60;;;;;;5091136;28;20083;-67
2023/05/18 03:26:17;;;;;;;5.00;2.20;;;24.60;58.60;;;;;;5090913;28;20047;-67
2023/05/18 03:28:43;;;;;;;3.05;2.20;;;24.60;58.70;;;;;;5071924;28;20079;-67
2023/05/18 03:31:09;;;;;;;3.17;2.15;;;24.50;58.60;;;;;;5094282;28;20111;-67
2023/05/18 03:33:35;;;;;;;3.55;1.83;;;24.50;58.60;;;;;;5085537;28;20112;-67
2023/05/18 03:36:03;;;;;;;5.38;2.17;;;24.40;58.70;;;;;;5090385;28;20463;-67
2023/05/18 03:38:30;;;;;;;6.25;2.55;;;24.60;58.70;;;;;;5077313;28;20055;-67
2023/05/18 03:41:02;;;;;;;4.07;2.60;;;24.50;58.60;;;;;;5092572;28;20031;-67
2023/05/18 03:43:31;;;;;;;7.32;3.00;;;24.50;58.50;;;;;;5094161;28;20084;-67
2023/05/18 03:45:57;;;;;;;3.97;2.38;;;24.50;58.00;;;;;;5105245;28;20090;-67
2023/05/18 03:48:26;;;;;;;2.90;2.45;;;24.30;58.10;;;;;;5110995;28;20023;-67
2023/05/18 03:50:52;;;;;;;9.23;2.67;;;24.40;58.40;;;;;;5093723;28;20043;-67
2023/05/18 03:53:20;;;;;;;3.22;2.30;;;24.40;58.60;;;;;;5111957;28;20107;-67
2023/05/18 03:55:50;;;;;;;3.80;2.00;;;24.40;58.60;;;;;;5106113;28;20463;-67
2023/05/18 03:58:18;;;;;;;6.97;2.67;;;24.40;58.70;;;;;;5112411;28;20031;-66
2023/05/18 04:00:46;;;;;;;4.30;3.08;;;24.40;58.60;;;;;;5104947;28;20027;-67
2023/05/18 04:03:13;;;;;;;3.63;2.22;;;24.30;58.50;;;;;;5109759;28;20505;-67
2023/05/18 04:05:43;;;;;;;3.00;2.60;;;24.50;58.60;;;;;;5108796;28;20023;-67
2023/05/18 04:08:13;;;;;;;6.38;2.97;;;24.60;58.40;;;;;;5113297;28;20028;-67
2023/05/18 04:10:43;;;;;;;4.68;2.72;;;24.50;58.30;;;;;;5093028;28;20108;-67
2023/05/18 04:13:09;;;;;;;2.58;2.17;;;24.60;58.30;;;;;;5111999;28;20071;-66
2023/05/18 04:15:36;;;;;;;5.63;2.50;;;24.70;58.30;;;;;;5087274;28;20048;-67
2023/05/18 04:18:03;;;;;;;8.82;2.08;;;24.70;58.20;;;;;;5111764;28;20028;-67
2023/05/18 04:20:29;;;;;;;4.47;3.40;;;24.80;58.10;;;;;;5106450;28;20055;-67
2023/05/18 04:22:58;;;;;;;7.43;3.28;;;24.80;58.10;;;;;;5111944;28;20458;-67
2023/05/18 04:25:28;;;;;;;10.40;3.72;;;24.80;58.00;;;;;;5109868;28;20064;-66
2023/05/18 04:27:55;;;;;;;5.32;2.58;;;24.90;58.00;;;;;;5112836;28;20028;-67
2023/05/18 04:30:22;;;;;;;3.33;2.28;;;25.00;58.00;;;;;;5102739;28;20058;-67
2023/05/18 04:32:49;;;;;;;7.75;2.78;;;24.90;58.00;;;;;;5067002;28;20047;-67
2023/05/18 04:35:17;;;;;;;4.05;2.80;;;24.90;58.00;;;;;;5046493;28;20139;-67
2023/05/18 04:37:44;;;;;;;4.05;2.47;;;25.00;57.90;;;;;;5050456;28;20040;-67
2023/05/18 04:40:17;;;;;;;4.93;2.53;;;25.00;57.90;;;;;;5052965;28;20121;-67
2023/05/18 04:42:46;;;;;;;6.55;2.55;;;25.10;57.60;;;;;;5024069;28;20040;-66
2023/05/18 04:45:18;;;;;;;4.20;2.70;;;25.00;55.20;;;;;;5043591;28;20141;-66
2023/05/18 04:47:46;;;;;;;6.53;2.30;;;25.20;54.40;;;;;;5069257;28;20611;-66
2023/05/18 04:50:16;;;;;;;8.30;3.30;;;25.20;52.20;;;;;;5045701;28;20083;-66
2023/05/18 04:52:47;;;;;;;5.40;2.40;;;25.30;52.70;;;;;;5017084;28;20049;-66
2023/05/18 04:55:26;;;;;;;5.35;2.58;;;25.20;51.50;;;;;;5059857;28;20489;-68
2023/05/18 04:57:55;;;;;;;5.72;2.60;;;25.30;53.30;;;;;;5045831;28;20077;-68
2023/05/18 05:00:27;;;;;;;3.25;2.67;;;25.20;51.50;;;;;;5032709;28;20508;-68
2023/05/18 05:02:54;;;;;;;4.93;3.57;;;25.30;51.30;;;;;;5033460;28;20488;-67
2023/05/18 05:05:21;;;;;;;6.22;4.60;;;25.20;52.90;;;;;;5096766;28;20287;-68
2023/05/18 05:07:51;;;;;;;5.63;2.63;;;25.30;52.50;;;;;;5104493;28;20039;-67
2023/05/18 05:10:18;;;;;;;4.20;3.20;;;25.30;51.70;;;;;;5117925;27;20039;-67
2023/05/18 05:12:44;;;;;;;2.85;2.20;;;25.30;51.40;;;;;;5106231;28;20027;-71
2023/05/18 05:15:11;;;;;;;4.45;3.00;;;25.30;52.60;;;;;;5105250;28;20454;-66
2023/05/18 05:17:37;;;;;;;2.67;1.60;;;25.50;52.10;;;;;;5085275;28;20162;-65
2023/05/18 05:20:07;;;;;;;2.22;1.40;;;25.40;54.10;;;;;;5090171;28;20056;-66
2023/05/18 05:22:33;;;;;;;4.05;1.75;;;25.50;53.00;;;;;;5105402;28;20054;-67
2023/05/18 05:25:01;;;;;;;3.30;1.77;;;25.50;56.10;;;;;;5088032;28;20035;-67
2023/05/18 05:27:27;;;;;;;2.55;1.83;;;25.40;56.20;;;;;;5083723;28;20105;-67
2023/05/18 05:29:53;;;;;;;3.42;1.50;;;25.50;55.90;;;;;;5072670;28;20036;-67
2023/05/18 05:32:19;;;;;;;1.80;1.60;;;25.50;56.50;;;;;;5090834;28;20039;-67
2023/05/18 05:34:46;;;;;;;2.58;2.38;;;25.60;54.70;;;;;;5087464;28;20483;-68
2023/05/18 05:37:14;;;;;;;5.43;1.40;;;25.60;56.70;;;;;;5090058;28;20544;-68
2023/05/18 05:39:40;;;;;;;1.92;1.30;;;25.50;56.60;;;;;;5087994;28;20065;-68
2023/05/18 05:42:07;;;;;;;4.43;1.30;;;25.50;56.70;;;;;;5089970;28;20039;-67
2023/05/18 05:44:34;;;;;;;6.05;1.83;;;25.60;56.80;;;;;;5088781;28;20032;-67
2023/05/18 05:47:00;;;;;;;2.35;1.80;;;25.70;56.90;;;;;;5090304;28;20395;-67
2023/05/18 05:49:26;;;;;;;1.60;1.48;;;25.60;56.80;;;;;;5088405;28;20032;-67
2023/05/18 05:51:53;;;;;;;1.92;1.38;;;25.70;56.70;;;;;;5088629;28;20039;-67
2023/05/18 05:54:20;;;;;;;2.78;1.63;;;25.60;56.50;;;;;;5072061;28;20101;-67
2023/05/18 05:56:46;;;;;;;5.93;2.42;;;25.60;57.00;;;;;;5089159;28;20104;-67
2023/05/18 05:59:12;;;;;;;1.88;1.25;;;25.70;57.90;;;;;;5089073;28;20036;-67
2023/05/18 06:01:38;;;;;;;3.28;1.42;;;25.70;58.00;;;;;;5089151;28;20044;-67
2023/05/18 06:04:09;;;;;;;2.03;1.73;;;25.70;59.00;;;;;;5089013;28;20774;-67
2023/05/18 06:06:38;;;;;;;2.03;1.63;;;25.60;58.70;;;;;;5072517;28;20732;-65
2023/05/18 06:09:05;;;;;;;5.45;2.03;;;25.80;58.40;;;;;;5094621;28;20046;-66
2023/05/18 06:11:32;;;;;;;2.92;1.60;;;25.70;57.90;;;;;;5103311;28;20040;-66
2023/05/18 06:13:58;;;;;;;5.35;1.50;;;25.70;57.30;;;;;;5102554;28;20063;-64
2023/05/18 06:16:25;;;;;;;4.25;1.70;;;25.70;56.50;;;;;;5088071;28;20066;-65
2023/05/18 06:18:51;;;;;;;3.25;1.42;;;25.70;56.70;;;;;;5088732;28;20032;-68
2023/05/18 06:21:18;;;;;;;2.22;1.58;;;25.70;56.00;;;;;;5089277;28;20047;-66
2023/05/18 06:23:44;;;;;;;3.10;1.65;;;25.80;55.90;;;;;;5088543;28;20039;-68
2023/05/18 06:26:28;;;;;;;1.88;1.63;;;25.80;55.70;;;;;;5088577;28;20078;-66
2023/05/18 06:29:14;;;;;;;2.08;1.38;;;25.70;55.40;;;;;;5087870;28;20028;-67
2023/05/18 06:32:05;;;;;;;2.97;1.88;;;25.80;55.30;;;;;;5086750;28;20093;-67
2023/05/18 06:34:38;;;;;;;2.08;1.63;;;25.80;55.10;;;;;;5088970;28;20130;-67
2023/05/18 06:37:05;;;;;;;3.83;1.80;;;25.80;54.80;;;;;;5091414;28;20027;-66
2023/05/18 06:39:31;;;;;;;3.05;2.03;;;25.90;54.90;;;;;;5092127;28;20425;-66
2023/05/18 06:41:57;;;;;;;1.58;1.48;;;25.80;54.40;;;;;;5091342;28;20020;-66
2023/05/18 06:44:30;;;;;;;6.57;1.40;;;25.90;54.30;;;;;;5092058;28;20065;-65
2023/05/18 06:47:16;;;;;;;3.13;1.90;;;25.80;54.50;;;;;;5088911;28;20054;-66
2023/05/18 06:49:42;;;;;;;2.55;1.50;;;25.90;54.10;;;;;;5095474;28;20392;-65
2023/05/18 06:52:08;;;;;;;1.92;1.73;;;26.00;54.60;;;;;;5075807;28;20032;-65
2023/05/18 06:54:36;;;;;;;5.22;1.40;;;25.80;54.10;;;;;;5072889;28;20051;-65
2023/05/18 06:57:03;;;;;;;7.70;1.90;;;25.80;54.00;;;;;;5089727;28;20029;-65
2023/05/18 06:59:29;;;;;;;3.78;1.90;;;25.80;54.00;;;;;;5089562;28;20040;-65
2023/05/18 07:01:56;;;;;;;1.70;1.60;;;26.00;54.50;;;;;;5073855;28;20613;-66
2023/05/18 07:04:23;;;;;;;5.10;2.28;;;25.90;54.20;;;;;;5089443;28;20505;-65
2023/05/18 07:06:50;;;;;;;3.05;1.70;;;26.00;54.80;;;;;;5073833;28;20127;-65
2023/05/18 07:09:16;;;;;;;2.80;1.77;;;25.90;54.50;;;;;;5073888;28;20036;-66
2023/05/18 07:11:44;;;;;;;3.20;1.88;;;26.00;54.80;;;;;;5073590;28;20040;-65
2023/05/18 07:14:10;;;;;;;4.38;1.80;;;25.90;54.20;;;;;;5073897;28;20045;-65
2023/05/18 07:16:36;;;;;;;6.60;3.55;;;25.90;54.40;;;;;;5073818;28;20037;-65
2023/05/18 07:19:03;;;;;;;2.88;2.42;;;26.00;54.20;;;;;;5073590;28;20542;-65
2023/05/18 07:21:30;;;;;;;2.33;2.10;;;26.00;54.40;;;;;;5073679;28;20072;-65
2023/05/18 07:23:56;;;;;;;3.45;1.63;;;25.90;53.90;;;;;;5073524;28;20037;-65
2023/05/18 07:26:22;;;;;;;2.80;1.88;;;26.00;54.10;;;;;;5088334;28;20048;-64
2023/05/18 07:28:50;;;;;;;2.22;1.75;;;25.90;53.20;;;;;;5073438;28;20383;-65
2023/05/18 07:31:19;;;;;;;2.60;2.10;;;25.90;52.30;;;;;;5073298;28;20052;-65
2023/05/18 07:33:46;;;;;;;2.92;2.17;;;25.80;52.00;;;;;;5087823;28;20047;-66
2023/05/18 07:36:13;;;;;;;5.05;1.85;;;25.80;53.10;;;;;;5093601;28;20118;-65
2023/05/18 07:38:39;;;;;;;4.07;2.13;;;25.80;52.90;;;;;;5093375;28;20040;-66
2023/05/18 07:41:05;;;;;;;3.60;2.03;;;25.80;53.30;;;;;;5093407;28;20119;-65
2023/05/18 07:43:31;;;;;;;3.85;1.90;;;25.80;52.50;;;;;;5093436;28;20040;-65
2023/05/18 07:45:57;;;;;;;2.20;2.00;;;25.80;52.90;;;;;;5091310;28;20035;-65
2023/05/18 07:48:23;;;;;;;7.18;1.92;;;25.80;53.30;;;;;;5093507;28;20562;-64
2023/05/18 07:50:49;;;;;;;2.38;1.98;;;25.70;53.20;;;;;;5092770;28;20039;-65
2023/05/18 07:53:15;;;;;;;2.28;1.80;;;25.80;50.40;;;;;;5093493;28;20040;-65
2023/05/18 07:55:41;;;;;;;2.25;1.70;;;25.90;52.30;;;;;;5093164;28;20036;-65
2023/05/18 07:58:08;;;;;;;4.43;2.03;;;25.70;52.80;;;;;;5092200;28;20055;-64
2023/05/18 08:00:34;;;;;;;3.47;1.75;;;25.80;53.00;;;;;;5094323;28;20035;-66
2023/05/18 08:03:00;;;;;;;7.15;2.65;;;25.80;53.00;;;;;;5091149;28;20024;-67
2023/05/18 08:05:26;;;;;;;2.65;1.83;;;25.70;53.10;;;;;;5096568;28;20032;-66
2023/05/18 08:07:52;;;;;;;2.20;1.80;;;25.80;51.40;;;;;;5096170;28;20059;-67
2023/05/18 08:10:18;;;;;;;2.15;1.88;;;25.70;52.10;;;;;;5097405;28;20039;-65
2023/05/18 08:12:44;;;;;;;2.05;1.63;;;25.70;52.80;;;;;;5089358;28;20038;-65
2023/05/18 08:15:11;;;;;;;2.78;1.70;;;25.80;52.60;;;;;;5089114;28;20447;-65
2023/05/18 08:17:37;;;;;;;2.10;1.90;;;25.70;52.10;;;;;;5092491;28;20137;-65
2023/05/18 08:20:03;;;;;;;1.67;1.55;;;25.70;51.90;;;;;;5093547;28;20559;-65
2023/05/18 08:22:30;;;;;;;3.60;2.00;;;25.70;51.70;;;;;;5088649;28;20064;-65
2023/05/18 08:24:59;;;;;;;1.70;1.35;;;25.70;51.80;;;;;;5123023;27;20024;-65
2023/05/18 08:27:25;;;;;;;3.38;2.05;;;25.70;51.30;;;;;;5097987;28;20031;-65
2023/05/18 08:29:51;;;;;;;3.60;2.22;;;25.70;52.10;;;;;;5099985;28;20053;-65
2023/05/18 08:32:17;;;;;;;2.55;2.22;;;25.70;52.20;;;;;;5088158;28;20024;-65
2023/05/18 08:34:43;;;;;;;17.90;2.55;;;25.60;52.20;;;;;;5100697;28;20032;-65
2023/05/18 08:37:09;;;;;;;2.67;2.10;;;25.80;52.40;;;;;;5101498;28;20040;-65
2023/05/18 08:39:36;;;;;;;2.63;2.10;;;25.70;51.80;;;;;;5090641;28;20036;-64
2023/05/18 08:42:10;;;;;;;3.80;2.00;;;25.70;52.50;;;;;;5081214;28;20036;-65
2023/05/18 08:44:53;;;;;;;4.28;1.70;;;25.70;52.50;;;;;;5070332;28;20534;-65
2023/05/18 08:47:24;;;;;;;3.90;1.90;;;25.60;51.80;;;;;;5099667;28;20077;-64
2023/05/18 08:49:54;;;;;;;2.22;1.80;;;25.80;50.60;;;;;;5087264;28;20032;-65
2023/05/18 08:52:25;;;;;;;3.15;1.88;;;25.60;52.10;;;;;;5077985;28;20118;-65
2023/05/18 08:54:53;;;;;;;1.58;1.48;;;25.60;51.90;;;;;;5092016;28;20040;-65
2023/05/18 08:57:22;;;;;;;3.88;2.50;;;25.70;52.50;;;;;;5093185;28;20411;-64
2023/05/18 08:59:51;;;;;;;1.95;1.73;;;25.70;50.10;;;;;;5093141;28;20372;-65
2023/05/18 09:02:17;;;;;;;5.15;2.70;;;25.60;52.10;;;;;;5087345;28;20032;-64
2023/05/18 09:04:45;;;;;;;5.68;2.50;;;25.60;49.40;;;;;;5100084;28;20026;-65
2023/05/18 09:07:12;;;;;;;2.85;2.28;;;25.40;48.30;;;;;;5096172;28;20028;-64
2023/05/18 09:09:39;;;;;;;2.92;2.53;;;25.50;51.90;;;;;;5100163;28;20416;-65
2023/05/18 09:12:06;;;;;;;6.15;2.13;;;25.50;52.30;;;;;;5097311;28;20451;-65
2023/05/18 09:14:32;;;;;;;4.90;2.20;;;25.50;52.60;;;;;;5098493;28;20088;-65
2023/05/18 09:16:59;;;;;;;2.85;1.88;;;25.50;52.50;;;;;;5125197;27;20459;-65
2023/05/18 09:19:25;;;;;;;3.70;2.58;;;25.50;52.40;;;;;;5109248;28;20047;-65
2023/05/18 09:21:51;;;;;;;2.00;1.80;;;25.50;52.80;;;;;;5124073;27;20055;-65
2023/05/18 09:24:18;;;;;;;4.35;2.65;;;25.40;53.00;;;;;;5130019;27;20035;-65
2023/05/18 09:26:45;;;;;;;1.75;1.55;;;25.70;53.00;;;;;;5114061;27;20118;-64
2023/05/18 09:29:16;;;;;;;3.25;2.47;;;25.60;53.10;;;;;;5105374;27;20064;-64
2023/05/18 09:31:44;;;;;;;2.88;2.58;;;25.60;53.00;;;;;;5122903;27;20074;-65
2023/05/18 09:34:10;;;;;;;4.45;2.65;;;25.60;53.10;;;;;;5118280;27;20043;-65
2023/05/18 09:36:36;;;;;;;4.10;2.60;;;25.40;53.10;;;;;;5101685;28;20043;-65
2023/05/18 09:39:12;;;;;;;2.88;1.95;;;25.40;51.00;;;;;;5108348;28;20419;-65
2023/05/18 09:41:39;;;;;;;8.18;2.53;;;25.50;53.00;;;;;;5114085;27;20040;-65
2023/05/18 09:44:08;;;;;;;1.88;1.75;;;25.40;52.80;;;;;;5112164;27;20454;-65
2023/05/18 09:46:38;;;;;;;2.53;2.00;;;25.40;52.80;;;;;;5124080;28;20035;-65
2023/05/18 09:49:05;;;;;;;3.53;2.35;;;25.50;52.90;;;;;;5111956;28;20119;-65
2023/05/18 09:51:37;;;;;;;3.45;2.30;;;25.40;48.40;;;;;;5067139;28;20411;-65
2023/05/18 09:54:07;;;;;;;2.42;1.92;;;25.40;52.20;;;;;;5069376;28;20052;-64
2023/05/18 09:56:37;;;;;;;2.72;2.30;;;25.50;52.70;;;;;;5072688;28;20036;-65
2023/05/18 09:59:14;;;;;;;2.55;2.28;;;25.40;52.90;;;;;;5067489;28;20067;-66
2023/05/18 10:02:00;;;;;;;5.72;2.45;;;25.30;53.50;;;;;;5078075;28;20054;-65
2023/05/18 10:04:39;;;;;;;3.38;2.22;;;25.60;57.50;;;;;;5057029;28;20041;-65
2023/05/18 10:07:12;;;;;;;2.60;2.05;;;25.70;55.80;;;;;;5046845;28;20066;-65
2023/05/18 10:09:42;;;;;;;3.38;2.75;;;25.60;56.70;;;;;;5080055;28;20048;-65
2023/05/18 10:12:16;;;;;;;2.22;1.80;;;25.50;56.30;;;;;;5072218;28;20093;-67
2023/05/18 10:14:43;;;;;;;1.05;1.05;;;25.50;59.20;;;;;;5080571;28;20399;-66
2023/05/18 10:17:11;;;;;;;1.23;1.13;;;25.70;58.00;;;;;;5080429;28;20048;-65
2023/05/18 10:19:40;;;;;;;6.28;2.00;;;25.70;57.30;;;;;;5081521;28;20120;-65
2023/05/18 10:22:08;;;;;;;1.48;1.35;;;25.80;55.60;;;;;;5073441;28;20040;-65
2023/05/18 10:24:38;;;;;;;3.22;2.13;;;26.00;56.80;;;;;;5059911;28;20812;-65
2023/05/18 10:27:08;;;;;;;4.93;3.20;;;26.10;57.60;;;;;;5078061;28;20032;-64
2023/05/18 10:29:36;;;;;;;2.10;1.90;;;26.10;58.60;;;;;;5099182;27;20043;-66
2023/05/18 10:32:03;;;;;;;2.35;1.80;;;26.20;60.00;;;;;;5128736;27;20054;-66
2023/05/18 10:34:33;;;;;;;4.70;1.98;;;26.30;59.00;;;;;;5096718;27;20051;-67
2023/05/18 10:37:04;;;;;;;2.35;2.13;;;26.10;55.70;;;;;;5111642;27;20035;-66
2023/05/18 10:39:38;;;;;;;1.20;1.10;;;26.00;53.20;;;;;;5097902;27;20044;-67
2023/05/18 10:42:08;;;;;;;5.95;2.03;;;26.00;53.00;;;;;;5111596;27;20035;-67
2023/05/18 10:44:36;;;;;;;1.00;1.00;;;26.00;52.20;;;;;;5112205;27;20088;-67
2023/05/18 10:47:04;;;;;;;1.55;1.42;;;26.00;51.80;;;;;;5091677;27;20027;-68
2023/05/18 10:49:32;;;;;;;1.25;1.15;;;26.00;52.60;;;;;;5121193;27;20131;-66
2023/05/18 10:51:59;;;;;;;3.65;2.55;;;25.90;52.20;;;;;;5115628;27;20059;-66
2023/05/18 10:54:26;;;;;;;4.20;2.15;;;26.10;52.50;;;;;;5111434;27;20040;-65
2023/05/18 10:56:52;;;;;;;1.35;1.25;;;25.90;51.80;;;;;;5109280;28;20047;-65
2023/05/18 10:59:19;;;;;;;2.20;2.00;;;26.00;52.00;;;;;;5108017;28;20110;-68
2023/05/18 11:01:48;;;;;;;3.92;2.03;;;25.90;50.80;;;;;;5108824;28;20470;-67
2023/05/18 11:04:14;;;;;;;3.25;2.45;;;26.00;51.40;;;;;;5093702;28;20024;-67
2023/05/18 11:06:40;;;;;;;4.88;1.90;;;25.90;51.20;;;;;;5094109;28;20044;-67
2023/05/18 11:09:06;;;;;;;3.60;2.70;;;26.00;51.20;;;;;;5096312;28;20028;-68
2023/05/18 11:11:56;;;;;;;2.13;1.27;;;26.00;51.50;;;;;;5095834;28;20040;-68
2023/05/18 11:14:30;;;;;;;3.33;2.60;;;26.00;55.50;;;;;;5098165;28;20043;-67
2023/05/18 11:17:24;;;;;;;3.80;2.65;;;26.00;52.50;;;;;;5100945;28;20049;-68
2023/05/18 11:20:08;;;;;;;7.70;2.67;;;26.00;53.00;;;;;;5098317;28;20056;-68
2023/05/18 11:22:58;;;;;;;5.88;2.55;;;25.90;52.20;;;;;;5100869;28;20054;-66
2023/05/18 11:25:29;;;;;;;2.97;2.30;;;25.80;51.90;;;;;;5105033;28;20125;-67
2023/05/18 11:28:03;;;;;;;3.28;2.70;;;25.80;51.40;;;;;;5110465;28;20088;-67
2023/05/18 11:30:33;;;;;;;4.13;2.70;;;25.80;51.70;;;;;;5107964;28;20031;-66
2023/05/18 11:33:16;;;;;;;4.80;2.63;;;25.80;52.10;;;;;;5102197;28;20051;-67
2023/05/18 11:36:02;;;;;;;5.63;2.63;;;25.80;52.50;;;;;;5073365;28;20090;-66
2023/05/18 11:38:51;;;;;;;3.13;2.30;;;25.80;52.80;;;;;;5117129;27;20088;-67
2023/05/18 11:41:42;;;;;;;6.10;2.28;;;25.80;52.80;;;;;;5104691;28;20036;-66
2023/05/18 11:44:10;;;;;;;2.97;2.40;;;25.70;52.90;;;;;;5087748;28;20036;-66
2023/05/18 11:46:49;;;;;;;5.03;2.38;;;25.70;53.00;;;;;;5105247;28;20117;-66
2023/05/18 11:49:16;;;;;;;3.88;2.15;;;25.70;53.10;;;;;;5109822;28;20711;-66
2023/05/18 11:52:06;;;;;;;2.70;2.17;;;25.80;53.20;;;;;;5109443;28;20055;-65
2023/05/18 11:54:55;;;;;;;2.97;2.50;;;25.80;53.20;;;;;;5099490;28;20036;-66
2023/05/18 11:57:33;;;;;;;5.03;1.67;;;25.80;53.40;;;;;;5111161;28;20034;-67
2023/05/18 12:00:00;;;;;;;4.93;2.20;;;25.90;53.50;;;;;;5092758;28;20419;-69
2023/05/18 12:02:30;;;;;;;3.40;2.30;;;25.80;53.10;;;;;;5099514;27;20093;-67
2023/05/18 12:05:01;;;;;;;3.70;1.83;;;25.80;52.80;;;;;;5100039;28;20487;-68
2023/05/18 12:07:29;;;;;;;2.40;1.80;;;25.70;53.40;;;;;;5099400;28;20044;-68
2023/05/18 12:10:19;;;;;;;3.97;2.00;;;25.80;53.10;;;;;;5093833;28;20454;-68
2023/05/18 12:12:51;;;;;;;1.73;1.63;;;25.80;53.10;;;;;;5091051;28;20036;-69
2023/05/18 12:15:21;;;;;;;3.47;2.42;;;25.70;52.70;;;;;;5093488;28;20122;-68
2023/05/18 12:17:49;;;;;;;2.78;2.20;;;25.80;52.30;;;;;;5100930;28;20085;-67
2023/05/18 12:20:18;;;;;;;3.90;2.17;;;25.80;52.80;;;;;;5109438;28;20065;-68
2023/05/18 12:22:48;;;;;;;3.67;2.58;;;25.80;52.50;;;;;;5093007;28;20040;-68
2023/05/18 12:25:15;;;;;;;2.65;2.45;;;25.70;52.60;;;;;;5110788;28;20056;-70
2023/05/18 12:27:42;;;;;;;3.40;2.72;;;25.90;52.40;;;;;;5106348;28;20089;-68
2023/05/18 12:30:11;;;;;;;4.82;2.63;;;25.70;51.80;;;;;;5094687;28;20043;-67
2023/05/18 12:32:37;;;;;;;2.10;1.90;;;25.80;49.80;;;;;;5092520;28;20483;-67
2023/05/18 12:35:05;;;;;;;14.35;2.67;;;25.60;52.00;;;;;;5091653;28;20403;-67
2023/05/18 12:37:31;;;;;;;2.10;1.90;;;25.50;52.00;;;;;;5104434;28;20131;-68
2023/05/18 12:39:57;;;;;;;4.25;2.63;;;25.60;52.00;;;;;;5088674;28;20111;-67
2023/05/18 12:42:22;;;;;;;2.03;1.80;;;25.70;51.60;;;;;;5090775;28;20039;-66
2023/05/18 12:44:49;;;;;;;3.63;2.58;;;25.60;50.80;;;;;;5086592;28;20051;-67
2023/05/18 12:47:15;;;;;;;3.28;2.17;;;25.60;51.70;;;;;;5090566;28;20026;-68
2023/05/18 12:49:48;;;;;;;2.42;1.95;;;25.60;51.40;;;;;;5092010;28;20032;-68
2023/05/18 12:52:15;;;;;;;4.15;2.47;;;25.50;51.70;;;;;;5090954;28;20040;-67
2023/05/18 12:54:59;;;;;;;5.53;2.85;;;25.50;51.70;;;;;;5090776;28;20399;-68